createdAt,value
2023-01-25T06:00:10.500Z,5.10
2023-01-25T06:05:18.044Z,5.10
2023-01-25T06:10:22.269Z,5.10
2023-01-25T06:15:26.501Z,5.10
2023-01-25T06:20:32.499Z,5.00
2023-01-25T06:30:40.528Z,5.00
2023-01-25T06:35:45.689Z,5.00
2023-01-25T06:45:53.620Z,5.00
2023-01-25T06:51:00.596Z,4.90
2023-01-25T06:56:06.600Z,4.90
2023-01-25T07:01:14.806Z,4.90
2023-01-25T07:06:20.887Z,4.90
2023-01-25T07:11:24.633Z,4.80
2023-01-25T07:21:34.270Z,4.70
2023-01-25T07:31:42.837Z,4.70
2023-01-25T07:36:48.106Z,4.50
2023-01-25T07:52:01.523Z,4.70
2023-01-25T08:02:11.484Z,4.60
2023-01-25T08:07:16.683Z,4.60
2023-01-25T08:12:20.544Z,4.60
2023-01-25T08:17:24.203Z,4.60
2023-01-25T08:22:29.580Z,4.70
2023-01-25T08:37:43.314Z,4.60
2023-01-25T08:47:51.734Z,4.70
2023-01-25T08:52:56.801Z,4.60
2023-01-25T09:03:04.830Z,4.70
2023-01-25T09:08:11.783Z,4.70
2023-01-25T09:18:19.503Z,4.70
2023-01-25T09:23:25.101Z,4.60
2023-01-25T09:28:30.024Z,4.70
2023-01-25T09:33:36.552Z,4.80
2023-01-25T09:38:41.590Z,4.80
2023-01-25T09:44:14.536Z,4.90
2023-01-25T09:49:30.777Z,5.10
2023-01-25T09:54:47.029Z,5.10
2023-01-25T09:59:52.684Z,5.10
2023-01-25T10:05:03.952Z,5.30
2023-01-25T10:10:18.556Z,5.30
2023-01-25T10:15:24.623Z,5.40
2023-01-25T10:20:37.108Z,5.50
2023-01-25T10:25:46.318Z,5.50
2023-01-25T10:30:57.928Z,5.60
2023-01-25T10:36:04.833Z,5.60
2023-01-25T10:41:15.105Z,5.60
2023-01-25T10:46:23.183Z,5.60
2023-01-25T10:51:31.892Z,5.70
2023-01-25T10:56:40.414Z,5.70
2023-01-25T11:06:50.472Z,5.70
2023-01-25T11:11:57.946Z,5.80
2023-01-25T11:17:04.463Z,5.90
2023-01-25T11:22:24.122Z,5.90
2023-01-25T11:27:29.391Z,6.10
2023-01-25T11:32:34.025Z,6.10
2023-01-25T11:37:52.042Z,6.20
2023-01-25T11:43:08.208Z,6.20
2023-01-25T11:48:34.210Z,6.30
2023-01-25T11:54:02.333Z,6.30
2023-01-25T11:59:19.897Z,6.40
2023-01-25T12:04:43.467Z,6.30
2023-01-25T12:10:02.662Z,6.40
2023-01-25T12:15:31.311Z,6.50
2023-01-25T12:20:50.796Z,6.50
2023-01-25T12:26:12.078Z,6.70
2023-01-25T12:31:20.749Z,6.70
2023-01-25T12:36:29.764Z,6.80
2023-01-25T12:41:41.240Z,7.00
2023-01-25T12:46:53.998Z,6.90
2023-01-25T12:52:00.233Z,6.90
2023-01-25T12:57:12.878Z,6.90
2023-01-25T13:02:34.023Z,6.90
2023-01-25T13:07:44.335Z,6.90
2023-01-25T13:12:56.437Z,6.90
2023-01-25T13:18:01.456Z,7.00
2023-01-25T13:28:42.639Z,7.20
2023-01-25T13:33:47.748Z,7.20
2023-01-25T13:44:17.290Z,7.20
2023-01-25T13:49:32.076Z,7.20
2023-01-25T13:54:44.263Z,7.30
2023-01-25T14:04:56.014Z,7.30
2023-01-25T14:15:19.821Z,7.30
2023-01-25T14:20:25.365Z,7.20
2023-01-25T14:30:34.822Z,7.30
2023-01-25T14:35:54.641Z,7.30
2023-01-25T14:41:04.534Z,7.20
2023-01-25T14:46:22.605Z,7.20
2023-01-25T14:51:30.880Z,7.20
2023-01-25T14:56:41.513Z,7.20
2023-01-25T15:06:52.238Z,7.30
2023-01-25T15:12:01.107Z,7.30
2023-01-25T15:22:10.570Z,7.40
2023-01-25T15:32:22.806Z,7.80
2023-01-25T15:37:27.827Z,7.30
2023-01-25T15:47:37.545Z,7.30
2023-01-25T15:52:42.571Z,7.30
2023-01-25T16:07:57.072Z,7.30
2023-01-25T16:18:07.348Z,7.30
2023-01-25T16:23:12.980Z,7.30
2023-01-25T16:38:29.252Z,7.30
2023-01-25T16:48:48.934Z,7.30
2023-01-25T16:53:56.580Z,7.30
2023-01-25T16:59:03.801Z,7.40
2023-01-25T17:04:07.939Z,7.40
2023-01-25T17:09:22.832Z,7.40
2023-01-25T17:14:27.514Z,7.40
2023-01-25T17:24:37.409Z,7.50
2023-01-25T17:39:50.400Z,7.40
2023-01-25T17:55:03.867Z,7.30
2023-01-25T18:00:11.987Z,7.30
2023-01-25T18:10:22.067Z,7.20
2023-01-25T18:15:26.016Z,7.20
2023-01-25T18:25:37.958Z,7.10
2023-01-25T18:30:50.258Z,7.00
2023-01-25T18:40:59.419Z,6.90
2023-01-25T18:51:08.257Z,6.90
2023-01-25T18:56:14.557Z,6.80
2023-01-25T19:01:19.950Z,6.80
2023-01-25T19:11:29.126Z,6.90
2023-01-25T19:26:43.094Z,7.00
2023-01-25T19:41:56.323Z,7.00
2023-01-25T19:57:09.359Z,7.00
2023-01-25T20:02:13.680Z,6.70
2023-01-25T20:07:17.311Z,6.80
2023-01-25T20:12:22.331Z,6.70
2023-01-25T20:27:35.379Z,6.80
2023-01-25T20:32:39.008Z,6.80
2023-01-25T20:37:43.210Z,6.90
2023-01-25T20:42:48.291Z,6.90
2023-01-25T20:58:01.323Z,6.90
2023-01-25T21:08:09.207Z,6.90
2023-01-25T21:13:14.201Z,7.00
2023-01-25T21:28:27.486Z,7.00
2023-01-25T21:33:31.184Z,6.40
2023-01-25T21:38:35.017Z,7.00
2023-01-25T21:43:54.108Z,7.10
2023-01-25T21:49:16.650Z,7.00
2023-01-25T21:54:22.153Z,7.10
2023-01-25T21:59:27.898Z,7.00
2023-01-25T22:14:44.829Z,7.20
2023-01-25T22:19:48.417Z,7.20
2023-01-25T22:24:52.421Z,7.20
2023-01-25T22:29:57.416Z,8.50
2023-01-25T22:35:01.003Z,7.10
2023-01-25T22:40:05.600Z,7.00
2023-01-25T22:45:11.326Z,6.90
2023-01-25T22:50:15.149Z,6.80
2023-01-25T22:55:18.799Z,6.80
2023-01-25T23:00:24.171Z,6.80
2023-01-25T23:05:28.610Z,6.80
2023-01-25T23:10:32.373Z,6.80
2023-01-25T23:15:37.679Z,6.80
2023-01-25T23:20:41.365Z,6.80
2023-01-25T23:25:47.836Z,6.80
